• Join FlightAware (Why Join?)
  • Login
  • US Flag 
07:35AM EDT


 

Airport Tracker/Info


-or-


 

Live Flight TrackerFlight Track Log ✈ DAL3691 ✈ 12-May-2013 ✈ KJFK - KCHS

Flight Track Log - Related Links

Times and Time Zones

All times are in EDT time to prevent confusion due to time zone crossing. See the DAL3691 flight status page for this flight to view local times or setup timezone preferences in your user account.

Time Position Orientation Groundspeed Altitude Reporting Facility
EDT Latitude Longitude Course Direction KTS MPH feet Rate Location/Type
07:19PM 40.6367 -73.8339 146° Southeast 154 177 2,100  Level New York Center
07:20PM 40.6061 -73.8792 228° Southwest 213 245 4,500 2,400 Climbing New York Center
07:21PM 40.4039 -73.5539 143° Southeast  Level FlightAware Approximate
07:21PM 40.5583 -73.8003 129° Southeast 193 222 7,000  Level New York Center
07:22PM 40.3251 -73.4917 143° Southeast  Level FlightAware Approximate
07:22PM 40.5439 -73.7042 101° East 236 272 7,100  Level New York Center
07:23PM 40.2584 -73.4169 123° Southeast  Level FlightAware Approximate
07:24PM 40.1850 -73.3403 146° Southeast  Level FlightAware Approximate
07:24PM 40.4236 -73.5781 141° Southeast 278 320 10,800  Level Washington Center
07:25PM 40.3472 -73.5039 143° Southeast 317 365 12,700 1,800 Climbing Washington Center
07:26PM 40.2647 -73.4275 145° Southeast 349 402 14,500 1,740 Climbing Washington Center
07:27PM 40.1819 -73.3486 144° Southeast 363 418 16,300 1,860 Climbing Washington Center
07:28PM 40.1031 -73.3647 189° South 291 335 18,300 1,440 Climbing Washington Center
07:29PM 40.0417 -73.4208 215° Southwest 277 319 19,200 960 Climbing Washington Center
07:30PM 39.9700 -73.4908 217° Southwest 292 336 20,200 960 Climbing Washington Center
07:31PM 39.8961 -73.5578 215° Southwest 320 368 21,200 960 Climbing Washington Center
07:32PM 39.8161 -73.6331 216° Southwest 325 374 22,200 900 Climbing Washington Center
07:33PM 39.7444 -73.7025 217° Southwest 330 380 23,100 840 Climbing Washington Center
07:34PM 39.6706 -73.7744 217° Southwest 335 386 23,900 780 Climbing Washington Center
07:35PM 39.5967 -73.8464 217° Southwest 335 386 24,700 780 Climbing Washington Center
07:36PM 39.5203 -73.9128 214° Southwest 341 392 25,500 780 Climbing Washington Center
07:37PM 39.4464 -73.9844 217° Southwest 341 392 26,300 840 Climbing Washington Center
07:38PM 39.3722 -74.0533 216° Southwest 336 387 27,200 780 Climbing Washington Center
07:39PM 39.2981 -74.1219 216° Southwest 336 387 27,900 660 Climbing Washington Center
07:40PM 39.2261 -74.1903 216° Southwest 336 387 28,600 660 Climbing Washington Center
07:41PM 39.1497 -74.2586 215° Southwest 336 387 29,300 660 Climbing Washington Center
07:42PM 39.0794 -74.3294 218° Southwest 336 387 30,000 300 Climbing Washington Center
07:43PM 39.0053 -74.3950 214° Southwest 336 387 30,000  Level Washington Center
07:44PM 38.9289 -74.4683 217° Southwest 341 392 30,000  Level Washington Center
07:45PM 38.8503 -74.5414 216° Southwest 341 392 30,000  Level Washington Center
07:46PM 38.7675 -74.6172 216° Southwest 356 410 30,000  Level Washington Center
07:47PM 38.6867 -74.6900 215° Southwest 356 410 30,000  Level Washington Center
07:48PM 38.6019 -74.7681 216° Southwest 362 417 30,000  Level Washington Center
07:49PM 38.5189 -74.8381 213° Southwest 367 422 30,000  Level Washington Center
07:50PM 38.4381 -74.9183 218° Southwest 372 428 30,000  Level Washington Center
07:51PM 38.3531 -74.9933 215° Southwest 372 428 30,000  Level Washington Center
07:52PM 38.2700 -75.0708 216° Southwest 377 434 30,000  Level Washington Center
07:53PM 38.1869 -75.1506 217° Southwest 377 434 30,000  Level Washington Center
07:54PM 38.1017 -75.2222 213° Southwest 377 434 30,000  Level Washington Center
07:55PM 38.0183 -75.2967 215° Southwest 377 434 30,000  Level Washington Center
07:56PM 37.9331 -75.3733 215° Southwest 377 434 30,000  Level Washington Center
07:57PM 37.8478 -75.4472 214° Southwest 377 434 30,000  Level Washington Center
07:58PM 37.7622 -75.5261 216° Southwest 377 434 30,000  Level Washington Center
07:59PM 37.6747 -75.5997 214° Southwest 382 440 30,000  Level Washington Center
08:00PM 37.5911 -75.6756 216° Southwest 377 434 30,000  Level Washington Center
08:01PM 37.5036 -75.7489 214° Southwest 377 434 30,000  Level Washington Center
08:02PM 37.4181 -75.8272 216° Southwest 382 440 30,000  Level Washington Center
08:03PM 37.3303 -75.9025 214° Southwest 382 440 30,000  Level Washington Center
08:04PM 37.2444 -75.9806 216° Southwest 382 440 30,000  Level Washington Center
08:05PM 37.1544 -76.0558 214° Southwest 382 440 30,000  Level Washington Center
08:06PM 37.0686 -76.1308 215° Southwest 382 440 30,000  Level Washington Center
08:07PM 36.9847 -76.1950 211° Southwest 387 445 30,000  Level Washington Center
08:08PM 36.8969 -76.2722 215° Southwest 394 453 30,000  Level Washington Center
08:09PM 36.8086 -76.3494 215° Southwest 394 453 30,000  Level Washington Center
08:10PM 36.7228 -76.4211 214° Southwest 394 453 30,000  Level Washington Center
08:11PM 36.6367 -76.5006 217° Southwest 388 447 30,000  Level Washington Center
08:12PM 36.5483 -76.5744 214° Southwest 388 447 30,000  Level Washington Center
08:13PM 36.4603 -76.6508 215° Southwest 383 441 30,000  Level Washington Center
08:14PM 36.3739 -76.7219 214° Southwest 383 441 30,000  Level Washington Center
08:15PM 36.2856 -76.7981 215° Southwest 383 441 30,000  Level Washington Center
08:16PM 36.1950 -76.8711 213° Southwest 383 441 30,000  Level Washington Center
08:17PM 36.1086 -76.9469 215° Southwest 383 441 30,000  Level Washington Center
08:18PM 36.0181 -77.0197 213° Southwest 383 441 30,000  Level Washington Center
08:19PM 35.9297 -77.0953 215° Southwest 383 441 30,000  Level Washington Center
08:20PM 35.8411 -77.1703 214° Southwest 383 441 30,000  Level Washington Center
08:21PM 35.7503 -77.2453 214° Southwest 383 441 30,000  Level Washington Center
08:22PM 35.6617 -77.3203 215° Southwest 383 441 30,000  Level Washington Center
08:23PM 35.5708 -77.3922 213° Southwest 389 448 30,000  Level Washington Center
08:24PM 35.4778 -77.4694 214° Southwest 399 459 30,000 -540 Level Washington Center
08:25PM 35.3847 -77.5461 214° Southwest 404 465 29,000 -1,020 Descending Washington Center
08:26PM 35.3019 -77.6306 220° Southwest 404 465 28,000 -540 Descending Washington Center
08:27PM 35.2192 -77.7150 220° Southwest 397 457 28,000  Level Washington Center
08:28PM 35.1361 -77.8017 220° Southwest 397 457 28,000  Level Washington Center
08:29PM 35.0533 -77.8856 220° Southwest 392 451 28,000  Level Washington Center
08:31PM 34.8550 -78.0961 221° Southwest 391 450 28,000  Level Jacksonville Center
08:32PM 34.7683 -78.1769 217° Southwest 391 450 28,000  Level Jacksonville Center
08:33PM 34.6900 -78.2619 222° Southwest 391 450 28,000  Level Jacksonville Center
08:34PM 34.5978 -78.3578 221° Southwest 396 456 28,000  Level Jacksonville Center
08:35PM 34.5311 -78.4217 218° Southwest 396 456 28,000 -60 Level Jacksonville Center
08:36PM 34.4344 -78.5225 221° Southwest 386 444 27,900 -60 Descending Jacksonville Center
08:37PM 34.3539 -78.6019 219° Southwest 386 444 27,900  Level Jacksonville Center
08:38PM 34.2856 -78.6781 223° Southwest 374 430 27,900 -540 Level Jacksonville Center
08:39PM 34.2172 -78.7542 223° Southwest 350 403 26,900 -1,020 Descending Jacksonville Center
08:40PM 34.1447 -78.8356 223° Southwest 350 403 25,900 -1,020 Descending Jacksonville Center
08:41PM 34.0722 -78.9192 224° Southwest 355 409 24,900 -960 Descending Jacksonville Center
08:42PM 33.9956 -79.0053 223° Southwest 366 421 24,000 -960 Descending Jacksonville Center
08:43PM 33.9189 -79.0911 223° Southwest 371 427 23,000 -540 Descending Jacksonville Center
08:44PM 33.8442 -79.1744 223° Southwest 376 433 23,000 -900 Level Jacksonville Center
08:45PM 33.7672 -79.2550 221° Southwest 376 433 21,200 -1,980 Descending Jacksonville Center
08:46PM 33.6875 -79.3133 211° Southwest 359 413 19,100 -2,100 Descending Jacksonville Center
08:47PM 33.6100 -79.3714 212° Southwest 346 398 17,100 -2,040 Descending Jacksonville Center
08:48PM 33.5322 -79.4292 212° Southwest 336 387 15,100 -2,040 Descending Jacksonville Center
08:49PM 33.4567 -79.4869 213° Southwest 336 387 13,100 -2,040 Descending Jacksonville Center
08:50PM 33.3789 -79.5447 212° Southwest 331 381 11,100 -1,200 Descending Jacksonville Center
08:51PM 33.3136 -79.6017 216° Southwest 319 367 10,700 -1,200 Descending Jacksonville Center
08:52PM 33.2672 -79.6631 228° Southwest 280 322 8,800 -1,680 Descending Jacksonville Center
08:53PM 33.2247 -79.7217 229° Southwest 255 293 7,400 -1,440 Descending Jacksonville Center
08:54PM 33.1783 -79.7853 229° Southwest 248 285 6,000 -1,380 Descending Jacksonville Center
08:55PM 33.1381 -79.8464 232° Southwest 243 280 4,700 -1,320 Descending Jacksonville Center
08:56PM 33.0997 -79.9047 232° Southwest 237 273 3,400 -1,320 Descending Jacksonville Center
08:57PM 33.0550 -79.9558 224° Southwest 237 273 2,100 -1,320 Descending Jacksonville Center